createdAt,value
2023-02-19T00:02:35.603Z,48.19
2023-02-19T00:05:21.024Z,48.02
2023-02-19T00:08:06.352Z,48.00
2023-02-19T00:10:51.698Z,48.06
2023-02-19T00:13:39.070Z,47.89
2023-02-19T00:16:27.412Z,47.98
2023-02-19T00:19:15.835Z,47.93
2023-02-19T00:22:01.271Z,48.02
2023-02-19T00:24:48.407Z,47.93
2023-02-19T00:27:34.827Z,47.99
2023-02-19T00:30:20.352Z,47.88
2023-02-19T00:33:05.636Z,47.95
2023-02-19T00:35:51.066Z,47.93
2023-02-19T00:38:37.811Z,47.96
2023-02-19T00:41:24.380Z,48.08
2023-02-19T00:44:11.445Z,47.96
2023-02-19T00:46:56.726Z,47.79
2023-02-19T00:49:41.994Z,48.03
2023-02-19T00:52:27.326Z,47.90
2023-02-19T00:55:12.593Z,48.05
2023-02-19T00:57:57.904Z,47.92
2023-02-19T01:00:43.046Z,48.05
2023-02-19T01:03:28.673Z,48.07
2023-02-19T01:06:16.247Z,48.08
2023-02-19T01:09:01.950Z,48.09
2023-02-19T01:11:47.738Z,48.23
2023-02-19T01:14:34.041Z,48.21
2023-02-19T01:17:19.271Z,48.08
2023-02-19T01:20:05.065Z,48.12
2023-02-19T01:22:50.504Z,48.23
2023-02-19T01:25:39.209Z,48.13
2023-02-19T01:28:24.524Z,48.11
2023-02-19T01:31:14.077Z,48.30
2023-02-19T01:34:02.189Z,48.17
2023-02-19T01:36:47.597Z,48.14
2023-02-19T01:39:32.763Z,48.29
2023-02-19T01:42:18.294Z,48.22
2023-02-19T01:45:25.517Z,48.19
2023-02-19T01:48:35.578Z,48.09
2023-02-19T01:51:22.367Z,48.17
2023-02-19T01:54:11.824Z,48.06
2023-02-19T01:56:58.498Z,48.19
2023-02-19T01:59:44.538Z,48.30
2023-02-19T02:02:30.197Z,48.21
2023-02-19T02:05:29.928Z,48.14
2023-02-19T02:08:36.126Z,48.17
2023-02-19T02:11:21.835Z,48.31
2023-02-19T02:14:07.012Z,48.22
2023-02-19T02:17:02.038Z,48.33
2023-02-19T02:20:15.447Z,48.31
2023-02-19T02:23:26.567Z,48.25
2023-02-19T02:26:36.240Z,48.33
2023-02-19T02:30:05.105Z,48.20
2023-02-19T02:32:53.483Z,48.11
2023-02-19T02:35:46.313Z,48.25
2023-02-19T02:38:35.175Z,48.25
2023-02-19T02:41:21.272Z,48.25
2023-02-19T02:44:06.519Z,48.29
2023-02-19T02:46:51.977Z,48.34
2023-02-19T02:49:58.330Z,48.19
2023-02-19T02:53:05.015Z,48.19
2023-02-19T02:55:53.342Z,48.39
2023-02-19T02:58:39.178Z,48.41
2023-02-19T03:01:51.710Z,48.40
2023-02-19T03:05:08.466Z,48.35
2023-02-19T03:08:00.643Z,48.40
2023-02-19T03:10:55.707Z,48.26
2023-02-19T03:13:59.870Z,48.31
2023-02-19T03:17:06.540Z,48.28
2023-02-19T03:19:56.235Z,48.33
2023-02-19T03:22:44.821Z,48.23
2023-02-19T03:25:52.692Z,48.40
2023-02-19T03:29:10.314Z,48.29
2023-02-19T03:32:06.258Z,48.27
2023-02-19T03:34:57.079Z,48.27
2023-02-19T03:37:49.682Z,48.43
2023-02-19T03:40:43.949Z,48.45
2023-02-19T03:43:32.539Z,48.41
2023-02-19T03:46:34.051Z,48.42
2023-02-19T03:49:35.275Z,48.16
2023-02-19T03:52:43.301Z,48.37
2023-02-19T03:55:37.862Z,48.40
2023-02-19T03:58:32.217Z,48.31
2023-02-19T04:01:28.441Z,48.40
2023-02-19T04:04:21.253Z,48.55
2023-02-19T04:07:06.834Z,48.35
2023-02-19T04:09:55.389Z,48.51
2023-02-19T04:12:45.937Z,48.41
2023-02-19T04:15:34.405Z,48.52
2023-02-19T04:18:25.697Z,48.52
2023-02-19T04:21:12.067Z,48.49
2023-02-19T04:24:02.585Z,48.52
2023-02-19T04:26:48.281Z,48.54
2023-02-19T04:29:33.837Z,48.46
2023-02-19T04:32:19.158Z,48.48
2023-02-19T04:35:04.538Z,48.39
2023-02-19T04:37:50.100Z,48.50
2023-02-19T04:40:35.499Z,48.54
2023-02-19T04:43:21.109Z,48.55
2023-02-19T04:46:07.013Z,48.54
2023-02-19T04:48:52.327Z,48.41
2023-02-19T04:51:39.065Z,48.37
2023-02-19T04:54:24.980Z,48.35
2023-02-19T04:57:10.209Z,48.38
2023-02-19T04:59:55.444Z,48.40
2023-02-19T05:05:18.600Z,48.34
2023-02-19T05:08:03.618Z,48.39
2023-02-19T05:10:48.443Z,48.39
2023-02-19T05:13:33.815Z,48.54
2023-02-19T05:16:18.300Z,48.64
2023-02-19T05:19:02.910Z,48.60
2023-02-19T05:21:48.168Z,48.67
2023-02-19T05:24:33.818Z,48.56
2023-02-19T05:27:19.078Z,48.53
2023-02-19T05:30:04.595Z,48.65
2023-02-19T05:32:50.289Z,48.65
2023-02-19T05:35:48.100Z,48.81
2023-02-19T05:38:33.635Z,48.70
2023-02-19T05:41:22.663Z,48.90
2023-02-19T05:44:10.672Z,49.23
2023-02-19T05:46:56.247Z,49.79
2023-02-19T05:49:41.441Z,49.87
2023-02-19T05:52:26.715Z,49.96
2023-02-19T05:55:12.358Z,49.90
2023-02-19T05:57:57.896Z,50.07
2023-02-19T06:00:43.061Z,50.00
2023-02-19T06:03:28.230Z,50.06
2023-02-19T06:06:15.308Z,50.14
2023-02-19T06:09:00.925Z,50.03
2023-02-19T06:11:46.692Z,50.01
2023-02-19T06:14:32.186Z,49.94
2023-02-19T06:17:18.584Z,50.02
2023-02-19T06:20:03.974Z,50.20
2023-02-19T06:22:52.434Z,50.42
2023-02-19T06:25:37.856Z,50.70
2023-02-19T06:28:23.254Z,50.88
2023-02-19T06:31:09.827Z,51.52
2023-02-19T06:33:55.529Z,51.08
2023-02-19T06:36:40.814Z,50.81
2023-02-19T06:39:26.811Z,50.59
2023-02-19T06:42:12.637Z,50.59
2023-02-19T06:44:58.135Z,50.59
2023-02-19T06:47:43.347Z,50.77
2023-02-19T06:50:28.777Z,50.62
2023-02-19T06:53:14.136Z,50.66
2023-02-19T06:56:08.538Z,50.58
2023-02-19T06:58:56.572Z,50.78
2023-02-19T07:01:43.470Z,50.75
2023-02-19T07:04:28.972Z,50.58
2023-02-19T07:07:14.241Z,50.75
2023-02-19T07:09:59.536Z,50.73
2023-02-19T07:12:44.935Z,50.97
2023-02-19T07:15:30.344Z,51.65
2023-02-19T07:18:15.661Z,51.95
2023-02-19T07:21:10.627Z,52.22
2023-02-19T07:23:56.630Z,52.03
2023-02-19T07:34:29.584Z,50.46
2023-02-19T07:37:14.376Z,50.26
2023-02-19T07:39:59.201Z,49.89
2023-02-19T07:42:44.305Z,51.19
2023-02-19T07:45:29.005Z,51.47
2023-02-19T07:48:14.561Z,51.71
2023-02-19T07:51:00.684Z,51.11
2023-02-19T07:53:47.060Z,51.36
2023-02-19T07:56:32.300Z,50.88
2023-02-19T07:59:19.449Z,50.78
2023-02-19T08:02:23.575Z,50.68
2023-02-19T08:05:08.887Z,50.82
2023-02-19T08:07:54.332Z,50.71
2023-02-19T08:10:59.385Z,50.67
2023-02-19T08:13:44.672Z,50.42
2023-02-19T08:16:42.578Z,50.47
2023-02-19T08:19:28.488Z,50.43
2023-02-19T08:22:16.279Z,50.37
2023-02-19T08:25:01.692Z,50.15
2023-02-19T08:27:46.973Z,49.60
2023-02-19T08:30:33.630Z,49.86
2023-02-19T08:33:21.809Z,50.07
2023-02-19T08:36:09.443Z,49.93
2023-02-19T08:38:54.830Z,50.03
2023-02-19T08:41:40.015Z,49.87
2023-02-19T08:44:25.217Z,50.11
2023-02-19T08:47:10.501Z,49.84
2023-02-19T08:49:56.023Z,49.63
2023-02-19T08:52:41.193Z,49.92
2023-02-19T08:55:27.077Z,49.93
2023-02-19T08:58:12.580Z,49.95
2023-02-19T09:00:57.967Z,49.31
2023-02-19T09:03:43.308Z,49.32
2023-02-19T09:06:28.886Z,49.20
2023-02-19T09:09:14.043Z,49.22
2023-02-19T09:11:59.834Z,49.55
2023-02-19T09:14:45.248Z,49.85
2023-02-19T09:17:30.556Z,51.07
2023-02-19T09:20:15.849Z,50.69
2023-02-19T09:23:01.307Z,50.72
2023-02-19T09:25:46.638Z,50.83
2023-02-19T09:28:31.903Z,50.66
2023-02-19T09:31:17.369Z,49.75
2023-02-19T09:34:03.160Z,50.48
2023-02-19T09:36:50.112Z,50.21
2023-02-19T09:39:35.919Z,50.23
2023-02-19T09:42:29.847Z,50.36
2023-02-19T09:45:23.045Z,50.42
2023-02-19T09:48:10.265Z,50.52
2023-02-19T09:50:57.317Z,50.41
2023-02-19T09:53:46.620Z,50.42
2023-02-19T09:56:43.712Z,50.67
2023-02-19T09:59:35.905Z,50.41
2023-02-19T10:02:24.325Z,50.31
2023-02-19T10:05:14.850Z,50.52
2023-02-19T10:08:00.626Z,50.44
2023-02-19T10:10:46.117Z,50.34
2023-02-19T10:14:12.795Z,49.96
2023-02-19T10:17:03.278Z,49.78
2023-02-19T10:19:48.879Z,49.56
2023-02-19T10:22:36.559Z,49.35
2023-02-19T10:25:22.159Z,49.25
2023-02-19T10:28:14.925Z,49.15
2023-02-19T10:31:03.287Z,48.99
2023-02-19T10:33:57.052Z,49.16
2023-02-19T10:36:45.205Z,49.14
2023-02-19T10:39:30.261Z,49.30
2023-02-19T10:42:21.703Z,49.12
2023-02-19T10:45:18.765Z,49.08
2023-02-19T10:48:05.798Z,49.18
2023-02-19T10:50:58.194Z,49.11
2023-02-19T10:53:49.145Z,50.64
2023-02-19T10:56:34.697Z,51.15
2023-02-19T10:59:28.728Z,50.64
2023-02-19T11:02:20.105Z,50.72
2023-02-19T11:05:12.148Z,50.68
2023-02-19T11:07:57.547Z,50.96
2023-02-19T11:10:48.227Z,50.86
2023-02-19T11:13:38.028Z,50.66
2023-02-19T11:16:36.729Z,50.86
2023-02-19T11:19:22.494Z,50.80
2023-02-19T11:22:32.167Z,50.79
2023-02-19T11:25:17.805Z,50.67
2023-02-19T11:28:20.638Z,50.82
2023-02-19T11:31:24.266Z,50.88
2023-02-19T11:34:21.211Z,51.08
2023-02-19T11:37:13.446Z,50.73
2023-02-19T11:39:58.837Z,50.73
2023-02-19T11:43:03.744Z,50.92
2023-02-19T11:45:55.781Z,50.63
2023-02-19T11:48:59.640Z,50.57
2023-02-19T11:51:53.362Z,50.40
2023-02-19T11:54:46.205Z,50.04
2023-02-19T11:57:43.831Z,49.79
2023-02-19T12:00:30.990Z,49.61
2023-02-19T12:03:35.590Z,49.46
2023-02-19T12:06:27.095Z,49.39
2023-02-19T12:09:33.178Z,49.57
2023-02-19T12:13:00.580Z,49.58
2023-02-19T12:16:08.310Z,49.94
2023-02-19T12:18:59.724Z,50.05
2023-02-19T12:22:09.723Z,50.08
2023-02-19T12:25:07.314Z,49.92
2023-02-19T12:27:55.899Z,49.86
2023-02-19T12:30:58.566Z,50.31
2023-02-19T12:33:59.082Z,50.30
2023-02-19T12:36:56.511Z,49.95
2023-02-19T12:39:55.953Z,50.08
2023-02-19T12:42:59.804Z,50.40
2023-02-19T12:45:49.043Z,50.05
2023-02-19T12:48:43.121Z,50.45
2023-02-19T12:51:43.670Z,51.03
2023-02-19T12:54:42.287Z,52.09
2023-02-19T12:57:33.171Z,53.74
2023-02-19T13:00:22.141Z,54.50
2023-02-19T13:03:21.037Z,53.29
2023-02-19T13:06:16.869Z,52.85
2023-02-19T13:09:14.360Z,52.67
2023-02-19T13:12:07.782Z,52.70
2023-02-19T13:15:05.331Z,53.54
2023-02-19T13:17:55.336Z,53.98
2023-02-19T13:20:43.443Z,54.03
2023-02-19T13:23:49.670Z,53.92
2023-02-19T13:26:44.404Z,53.15
2023-02-19T13:29:53.403Z,53.18
2023-02-19T13:33:11.844Z,52.96
2023-02-19T13:36:06.391Z,52.70
2023-02-19T13:38:52.201Z,52.61
2023-02-19T13:42:02.637Z,52.65
2023-02-19T13:44:48.483Z,52.22
2023-02-19T13:47:49.338Z,52.01
2023-02-19T13:50:35.041Z,51.87
2023-02-19T13:53:45.247Z,51.63
2023-02-19T13:56:31.385Z,51.53
2023-02-19T13:59:25.598Z,51.39
2023-02-19T14:02:28.870Z,51.19
2023-02-19T14:05:14.324Z,51.07
2023-02-19T14:07:59.867Z,51.07
2023-02-19T14:11:02.510Z,50.99
2023-02-19T14:13:51.745Z,50.99
2023-02-19T14:16:40.469Z,51.00
2023-02-19T14:19:46.441Z,50.93
2023-02-19T14:22:52.119Z,50.81
2023-02-19T14:25:53.424Z,50.64
2023-02-19T14:28:46.005Z,50.71
2023-02-19T14:31:36.559Z,50.48
2023-02-19T14:34:27.156Z,50.63
2023-02-19T14:37:21.702Z,50.40
2023-02-19T14:40:07.653Z,50.40
2023-02-19T14:42:57.270Z,50.84
2023-02-19T14:45:47.377Z,51.25
2023-02-19T14:48:38.224Z,51.60
2023-02-19T14:51:40.111Z,51.21
2023-02-19T14:54:57.824Z,50.93
2023-02-19T14:57:49.035Z,50.86
2023-02-19T15:00:39.865Z,50.93
2023-02-19T15:03:37.141Z,50.51
2023-02-19T15:06:24.449Z,50.87
2023-02-19T15:09:09.846Z,51.34
2023-02-19T15:11:57.087Z,51.59
2023-02-19T15:14:44.226Z,51.57
2023-02-19T15:17:32.372Z,51.43
2023-02-19T15:20:25.616Z,51.55
2023-02-19T15:23:18.921Z,51.35
2023-02-19T15:26:04.486Z,51.43
2023-02-19T15:29:11.292Z,51.61
2023-02-19T15:31:58.906Z,51.65
2023-02-19T15:34:57.582Z,51.96
2023-02-19T15:37:42.968Z,51.95
2023-02-19T15:40:32.447Z,51.93
2023-02-19T15:43:25.129Z,52.09
2023-02-19T15:46:20.254Z,51.93
2023-02-19T15:49:16.138Z,51.96
2023-02-19T15:52:09.164Z,51.61
2023-02-19T15:55:04.628Z,51.76
2023-02-19T15:57:58.512Z,52.03
2023-02-19T16:00:52.097Z,52.04
2023-02-19T16:03:38.143Z,52.00
2023-02-19T16:06:25.017Z,52.16
2023-02-19T16:09:20.997Z,52.38
2023-02-19T16:12:24.649Z,52.83
2023-02-19T16:15:19.633Z,53.02
2023-02-19T16:18:05.017Z,49.79
2023-02-19T16:20:50.277Z,50.90
2023-02-19T16:23:35.933Z,50.98
2023-02-19T16:26:21.961Z,51.06
2023-02-19T16:29:19.419Z,51.11
2023-02-19T16:32:16.937Z,51.31
2023-02-19T16:35:02.357Z,51.63
2023-02-19T16:37:58.431Z,51.30
2023-02-19T16:40:54.156Z,51.70
2023-02-19T16:43:42.230Z,51.72
2023-02-19T16:46:27.654Z,51.91
2023-02-19T16:49:13.051Z,51.65
2023-02-19T16:52:02.139Z,52.27
2023-02-19T16:54:49.702Z,52.72
2023-02-19T16:57:35.261Z,53.72
2023-02-19T17:00:22.115Z,54.98
2023-02-19T17:03:11.501Z,54.98
2023-02-19T17:05:57.021Z,54.97
2023-02-19T17:08:44.265Z,54.80
2023-02-19T17:11:29.522Z,54.08
2023-02-19T17:14:14.875Z,53.70
2023-02-19T17:17:01.979Z,53.36
2023-02-19T17:19:48.516Z,53.05
2023-02-19T17:22:34.679Z,52.99
2023-02-19T17:25:20.186Z,52.79
2023-02-19T17:28:05.718Z,52.43
2023-02-19T17:30:50.899Z,52.43
2023-02-19T17:33:37.139Z,51.90
2023-02-19T17:36:31.215Z,51.55
2023-02-19T17:39:16.638Z,51.48
2023-02-19T17:42:01.952Z,50.98
2023-02-19T17:44:47.585Z,50.72
2023-02-19T17:47:32.939Z,50.18
2023-02-19T17:50:21.617Z,50.45
2023-02-19T17:53:07.737Z,49.94
2023-02-19T17:55:52.945Z,49.76
2023-02-19T17:58:38.170Z,49.39
2023-02-19T18:01:24.098Z,49.13
2023-02-19T18:04:09.427Z,48.72
2023-02-19T18:06:55.896Z,48.54
2023-02-19T18:09:41.757Z,48.21
2023-02-19T18:12:28.416Z,47.65
2023-02-19T18:15:20.956Z,47.12
2023-02-19T18:18:06.272Z,46.54
2023-02-19T18:20:51.989Z,46.17
2023-02-19T18:23:37.782Z,45.90
2023-02-19T18:26:24.654Z,45.69
2023-02-19T18:29:10.442Z,45.19
2023-02-19T18:31:56.352Z,44.76
2023-02-19T18:34:41.312Z,44.48
2023-02-19T18:37:27.900Z,44.10
2023-02-19T18:40:13.526Z,44.15
2023-02-19T18:42:59.608Z,44.58
2023-02-19T18:45:46.566Z,44.71
2023-02-19T18:48:32.384Z,44.93
2023-02-19T18:51:17.939Z,44.89
2023-02-19T18:54:04.104Z,44.75
2023-02-19T18:56:49.949Z,44.28
2023-02-19T18:59:35.534Z,44.54
2023-02-19T19:02:20.825Z,44.28
2023-02-19T19:05:06.446Z,44.36
2023-02-19T19:07:54.201Z,44.27
2023-02-19T19:10:39.679Z,44.16
2023-02-19T19:13:25.496Z,44.09
2023-02-19T19:16:11.146Z,44.12
2023-02-19T19:18:57.101Z,44.12
2023-02-19T19:21:43.116Z,44.04
2023-02-19T19:24:28.631Z,44.09
2023-02-19T19:27:14.369Z,44.16
2023-02-19T19:30:01.628Z,44.34
2023-02-19T19:32:52.169Z,44.30
2023-02-19T19:35:37.634Z,44.31
2023-02-19T19:38:22.805Z,44.33
2023-02-19T19:41:08.119Z,44.80
2023-02-19T19:43:53.438Z,44.89
2023-02-19T19:46:45.635Z,45.00
2023-02-19T19:49:31.330Z,45.10
2023-02-19T19:52:16.681Z,45.29
2023-02-19T19:55:02.114Z,45.20
2023-02-19T19:57:49.644Z,45.10
2023-02-19T20:00:35.191Z,45.13
2023-02-19T20:03:21.562Z,45.15
2023-02-19T20:06:07.178Z,45.30
2023-02-19T20:08:52.444Z,45.36
2023-02-19T20:11:49.797Z,45.50
2023-02-19T20:14:37.765Z,45.53
2023-02-19T20:17:27.281Z,45.64
2023-02-19T20:20:12.878Z,45.74
2023-02-19T20:22:58.381Z,45.77
2023-02-19T20:25:43.471Z,45.96
2023-02-19T20:28:28.676Z,46.10
2023-02-19T20:31:14.307Z,46.13
2023-02-19T20:34:00.556Z,46.20
2023-02-19T20:36:47.563Z,45.96
2023-02-19T20:39:34.627Z,45.99
2023-02-19T20:42:19.955Z,46.61
2023-02-19T20:45:06.012Z,46.53
2023-02-19T20:47:51.652Z,46.52
2023-02-19T20:50:36.871Z,46.33
2023-02-19T20:53:22.151Z,46.22
2023-02-19T20:56:07.629Z,46.33
2023-02-19T20:58:52.927Z,46.13
2023-02-19T21:01:38.254Z,46.17
2023-02-19T21:04:23.871Z,46.24
2023-02-19T21:07:09.342Z,46.05
2023-02-19T21:09:54.834Z,46.03
2023-02-19T21:12:41.919Z,45.88
2023-02-19T21:15:27.400Z,46.08
2023-02-19T21:18:12.644Z,46.01
2023-02-19T21:20:57.828Z,45.84
2023-02-19T21:23:43.209Z,45.82
2023-02-19T21:26:36.941Z,46.03
2023-02-19T21:29:22.686Z,46.10
2023-02-19T21:32:08.088Z,46.10
2023-02-19T21:34:53.937Z,46.27
2023-02-19T21:37:42.277Z,46.15
2023-02-19T21:40:29.772Z,46.31
2023-02-19T21:43:15.211Z,46.34
2023-02-19T21:46:00.578Z,47.72
2023-02-19T21:48:53.194Z,46.54
2023-02-19T21:51:43.668Z,46.71
2023-02-19T21:54:29.161Z,46.68
2023-02-19T21:57:14.393Z,46.79
2023-02-19T21:59:59.707Z,46.84
2023-02-19T22:02:45.141Z,46.46
2023-02-19T22:05:30.329Z,46.50
2023-02-19T22:08:17.401Z,46.56
2023-02-19T22:11:02.938Z,46.62
2023-02-19T22:13:48.252Z,46.64
2023-02-19T22:16:33.540Z,47.09
2023-02-19T22:19:18.787Z,46.80
2023-02-19T22:22:04.484Z,46.80
2023-02-19T22:24:49.420Z,46.87
2023-02-19T22:27:34.808Z,46.67
2023-02-19T22:30:20.289Z,47.07
2023-02-19T22:33:05.964Z,46.99
2023-02-19T22:35:51.389Z,46.99
2023-02-19T22:38:36.724Z,46.80
2023-02-19T22:41:22.631Z,46.86
2023-02-19T22:44:09.953Z,46.78
2023-02-19T22:46:56.556Z,46.99
2023-02-19T22:49:43.805Z,47.02
2023-02-19T22:52:29.170Z,46.75
2023-02-19T22:55:15.675Z,46.85
2023-02-19T22:58:01.174Z,46.94
2023-02-19T23:00:46.607Z,46.66
2023-02-19T23:03:32.168Z,46.87
2023-02-19T23:06:21.505Z,46.76
2023-02-19T23:09:13.948Z,46.66
2023-02-19T23:12:08.217Z,46.40
2023-02-19T23:14:53.571Z,46.40
2023-02-19T23:17:38.871Z,46.57
2023-02-19T23:20:24.269Z,46.40
2023-02-19T23:23:09.398Z,46.37
2023-02-19T23:25:54.618Z,46.25
2023-02-19T23:28:41.092Z,46.24
2023-02-19T23:31:26.988Z,46.24
2023-02-19T23:34:12.775Z,46.07
2023-02-19T23:37:00.177Z,46.18
2023-02-19T23:39:45.497Z,46.12
2023-02-19T23:42:31.502Z,46.15
2023-02-19T23:45:17.112Z,46.10
2023-02-19T23:48:02.324Z,46.10
2023-02-19T23:50:47.523Z,46.15
2023-02-19T23:53:32.840Z,46.33
2023-02-19T23:56:25.597Z,46.42
2023-02-19T23:59:10.922Z,46.48
